Monday, December 18, 2017, 3:32 PM EST
Back to Local

KMVY, Vineyard Haven Marthas Vin

Location: Vineyard Haven, MA, United States Lat: 41.4
Local Time: 3:32 PM EST (20:32 GMT) Lon: -70.617
Time Zone: US/Eastern Elev: 68 ft

Show me the last for .
Show Decoded

2017-12-18 15:25 METAR KMVY 182025Z 13007KT 9SM BKN016 OVC031 A2998 RMK AO2 $ =
2017-12-18 15:03 METAR KMVY 182003Z 14007KT 5SM HZ BKN014 BKN021 OVC032 A2998 RMK AO2 $ =
2017-12-18 14:53 METAR KMVY 181953Z 14008KT 4SM HZ OVC015 04/01 A2998 RMK AO2 RAB24E37 SLPNO
                 P0000 T00390011 $ =
2017-12-18 14:18 METAR KMVY 181918Z 14008KT 10SM BKN019 OVC029 04/01 A2999 RMK AO2 T00390011 $ =
2017-12-18 13:53 METAR KMVY 181853Z 15008KT 10SM OVC033 A3001 RMK AO2 SLPNO $ =
2017-12-18 12:53 METAR KMVY 181753Z 15007KT 10SM FEW037 SCT043 OVC055 03/M02 A3004 RMK AO2 SLPNO
                 60000 T00281022 56039 $ =
2017-12-18 11:53 METAR KMVY 181653Z 13009KT 10SM FEW050 OVC060 A3006 RMK AO2 UPB22E32 SLPNO P0000
                 $ =
2017-12-18 10:53 METAR KMVY 181553Z 13008KT 10SM BKN043 OVC055 02/M04 A3010 RMK AO2 SLPNO
                 T00221039 $ =
2017-12-18 09:53 METAR KMVY 181453Z 12004KT 10SM FEW045 OVC055 02/M04 A3015 RMK AO2 SLPNO
                 T00221039 58012 $ =
2017-12-18 08:53 METAR KMVY 181353Z 10004KT 10SM FEW038 OVC055 M02/M05 A3016 RMK AO2 SLPNO
                 T10221050 $ =
2017-12-18 08:03 METAR KMVY 181303Z 08003KT 10SM SCT024 OVC032 M02/M05 A3018 RMK AO2 T10221050 $
                 =
2017-12-18 07:53 METAR KMVY 181253Z 08003KT 10SM BKN024 OVC032 A3018 RMK AO2 SLPNO $ =
2017-12-18 06:53 METAR KMVY 181153Z 00000KT 10SM OVC026 M03/M06 A3019 RMK AO2 SLPNO T10281061
                 56010 $ =
2017-12-18 05:53 METAR KMVY 181053Z AUTO 00000KT 10SM OVC028 A3019 RMK AO2 SLPNO $ =
2017-12-18 05:23 METAR KMVY 181023Z AUTO 00000KT 10SM OVC029 A3019 RMK AO2 $ =
2017-12-18 04:53 METAR KMVY 180953Z AUTO 00000KT 10SM BKN032 OVC120 A3019 RMK AO2 SLPNO $ =
2017-12-18 03:53 METAR KMVY 180853Z AUTO 23003KT 10SM BKN050 BKN120 A3021 RMK AO2 SLPNO 58003 $ =
2017-12-18 02:53 METAR KMVY 180753Z AUTO 02003KT 10SM OVC075 A3022 RMK AO2 SLPNO $ =
2017-12-18 01:53 METAR KMVY 180653Z AUTO 00000KT 10SM FEW095 M17/ A3023 RMK AO2 SLP238 T1167 $ =
2017-12-18 00:53 METAR KMVY 180553Z AUTO 00000KT 10SM CLR A3022 RMK AO2 SLPNO 58014 $ =
2017-12-17 23:53 METAR KMVY 180453Z AUTO 00000KT 10SM CLR A3024 RMK AO2 SLPNO $ =
2017-12-17 22:53 METAR KMVY 180353Z AUTO 00000KT 10SM CLR A3025 RMK AO2 SLPNO $ =
2017-12-17 21:53 METAR KMVY 180253Z AUTO 00000KT 10SM CLR A3026 RMK AO2 SLPNO 58003 $ =
2017-12-17 20:53 METAR KMVY 180153Z AUTO 34003KT 10SM CLR A3028 RMK AO2 SLPNO $ =
2017-12-17 19:53 METAR KMVY 180053Z AUTO 36003KT 10SM CLR M17/ A3027 RMK AO2 SLPNO T1167 $ =
2017-12-17 18:53 METAR KMVY 172353Z AUTO 00000KT 10SM CLR A3027 RMK AO2 SLPNO 53014 $ =
2017-12-17 17:53 METAR KMVY 172253Z AUTO 31004KT 10SM CLR A3025 RMK AO2 SLPNO $ =
2017-12-17 16:53 METAR KMVY 172153Z 32004KT 10SM CLR M02/M12 A3024 RMK AO2 SLPNO T10221122 $ =
2017-12-17 15:53 METAR KMVY 172053Z 33003KT 10SM CLR A3023 RMK AO2 SLPNO 53001 $ =

Support USWX by starting your Amazon purchase here.